sensor_id;sensor_type;location;lat;lon;timestamp;temperature;humidity
35700;DHT22;21818;51.078;12.108;2023-02-28T00:01:20;12.40;82.50
35700;DHT22;21818;51.078;12.108;2023-02-28T00:03:46;12.40;82.50
35700;DHT22;21818;51.078;12.108;2023-02-28T00:06:11;12.40;82.60
35700;DHT22;21818;51.078;12.108;2023-02-28T00:08:38;12.40;82.70
35700;DHT22;21818;51.078;12.108;2023-02-28T00:11:07;12.40;82.70
35700;DHT22;21818;51.078;12.108;2023-02-28T00:13:35;12.40;82.70
35700;DHT22;21818;51.078;12.108;2023-02-28T00:16:04;12.40;82.80
35700;DHT22;21818;51.078;12.108;2023-02-28T00:18:29;12.50;82.80
35700;DHT22;21818;51.078;12.108;2023-02-28T00:20:55;12.50;82.80
35700;DHT22;21818;51.078;12.108;2023-02-28T00:23:21;12.50;82.90
35700;DHT22;21818;51.078;12.108;2023-02-28T00:25:46;12.50;83.00
35700;DHT22;21818;51.078;12.108;2023-02-28T00:28:12;12.40;83.00
35700;DHT22;21818;51.078;12.108;2023-02-28T00:30:37;12.40;83.10
35700;DHT22;21818;51.078;12.108;2023-02-28T00:33:03;12.50;83.20
35700;DHT22;21818;51.078;12.108;2023-02-28T00:35:28;12.40;83.30
35700;DHT22;21818;51.078;12.108;2023-02-28T00:37:54;12.50;83.40
35700;DHT22;21818;51.078;12.108;2023-02-28T00:40:19;12.50;83.50
35700;DHT22;21818;51.078;12.108;2023-02-28T00:42:45;12.40;83.50
35700;DHT22;21818;51.078;12.108;2023-02-28T00:45:10;12.40;83.60
35700;DHT22;21818;51.078;12.108;2023-02-28T00:47:36;12.40;83.70
35700;DHT22;21818;51.078;12.108;2023-02-28T00:50:02;12.40;83.70
35700;DHT22;21818;51.078;12.108;2023-02-28T00:52:28;12.40;83.80
35700;DHT22;21818;51.078;12.108;2023-02-28T00:54:54;12.40;83.90
35700;DHT22;21818;51.078;12.108;2023-02-28T00:57:20;12.40;83.90
35700;DHT22;21818;51.078;12.108;2023-02-28T00:59:45;12.40;84.00
35700;DHT22;21818;51.078;12.108;2023-02-28T01:02:11;12.40;84.00
35700;DHT22;21818;51.078;12.108;2023-02-28T01:04:36;12.40;84.10
35700;DHT22;21818;51.078;12.108;2023-02-28T01:07:02;12.40;84.10
35700;DHT22;21818;51.078;12.108;2023-02-28T01:09:28;12.40;84.20
35700;DHT22;21818;51.078;12.108;2023-02-28T01:11:54;12.40;84.30
35700;DHT22;21818;51.078;12.108;2023-02-28T01:14:19;12.50;84.30
35700;DHT22;21818;51.078;12.108;2023-02-28T01:16:45;12.50;84.30
35700;DHT22;21818;51.078;12.108;2023-02-28T01:19:10;12.40;84.20
35700;DHT22;21818;51.078;12.108;2023-02-28T01:21:36;12.50;84.30
35700;DHT22;21818;51.078;12.108;2023-02-28T01:24:03;12.40;84.30
35700;DHT22;21818;51.078;12.108;2023-02-28T01:26:29;12.40;84.40
35700;DHT22;21818;51.078;12.108;2023-02-28T01:28:54;12.40;84.40
35700;DHT22;21818;51.078;12.108;2023-02-28T01:31:21;12.40;84.50
35700;DHT22;21818;51.078;12.108;2023-02-28T01:33:47;12.40;84.50
35700;DHT22;21818;51.078;12.108;2023-02-28T01:36:15;12.40;84.60
35700;DHT22;21818;51.078;12.108;2023-02-28T01:38:42;12.40;84.60
35700;DHT22;21818;51.078;12.108;2023-02-28T01:41:22;12.40;84.70
35700;DHT22;21818;51.078;12.108;2023-02-28T01:46:15;12.40;84.70
35700;DHT22;21818;51.078;12.108;2023-02-28T01:48:48;12.40;84.80
35700;DHT22;21818;51.078;12.108;2023-02-28T01:51:20;12.40;84.90
35700;DHT22;21818;51.078;12.108;2023-02-28T01:53:54;12.40;85.00
35700;DHT22;21818;51.078;12.108;2023-02-28T01:56:25;12.40;85.00
35700;DHT22;21818;51.078;12.108;2023-02-28T01:58:52;12.40;85.10
35700;DHT22;21818;51.078;12.108;2023-02-28T02:01:20;12.40;85.00
35700;DHT22;21818;51.078;12.108;2023-02-28T02:03:58;12.40;85.00
35700;DHT22;21818;51.078;12.108;2023-02-28T02:06:45;12.50;85.10
35700;DHT22;21818;51.078;12.108;2023-02-28T02:09:12;12.40;85.10
35700;DHT22;21818;51.078;12.108;2023-02-28T02:11:43;12.40;85.10
35700;DHT22;21818;51.078;12.108;2023-02-28T02:27:26;12.40;85.60
35700;DHT22;21818;51.078;12.108;2023-02-28T02:33:15;12.40;85.70
35700;DHT22;21818;51.078;12.108;2023-02-28T02:41:24;12.40;85.80
35700;DHT22;21818;51.078;12.108;2023-02-28T02:46:33;12.40;85.90
35700;DHT22;21818;51.078;12.108;2023-02-28T02:49:00;12.40;86.00
35700;DHT22;21818;51.078;12.108;2023-02-28T02:51:28;12.40;85.80
35700;DHT22;21818;51.078;12.108;2023-02-28T02:54:08;12.40;85.80
35700;DHT22;21818;51.078;12.108;2023-02-28T02:56:35;12.40;86.00
35700;DHT22;21818;51.078;12.108;2023-02-28T02:59:04;12.40;86.00
35700;DHT22;21818;51.078;12.108;2023-02-28T03:01:32;12.40;86.20
35700;DHT22;21818;51.078;12.108;2023-02-28T03:04:13;12.40;86.20
35700;DHT22;21818;51.078;12.108;2023-02-28T03:06:41;12.40;86.30
35700;DHT22;21818;51.078;12.108;2023-02-28T03:09:06;12.40;86.30
35700;DHT22;21818;51.078;12.108;2023-02-28T03:11:32;12.30;86.30
35700;DHT22;21818;51.078;12.108;2023-02-28T03:14:11;12.30;86.40
35700;DHT22;21818;51.078;12.108;2023-02-28T03:16:46;12.30;86.40
35700;DHT22;21818;51.078;12.108;2023-02-28T03:21:59;12.30;86.30
35700;DHT22;21818;51.078;12.108;2023-02-28T03:29:48;12.30;86.50
35700;DHT22;21818;51.078;12.108;2023-02-28T03:32:34;12.30;86.60
35700;DHT22;21818;51.078;12.108;2023-02-28T03:35:18;12.30;86.70
35700;DHT22;21818;51.078;12.108;2023-02-28T03:37:50;12.30;86.70
35700;DHT22;21818;51.078;12.108;2023-02-28T03:40:21;12.30;86.70
35700;DHT22;21818;51.078;12.108;2023-02-28T03:42:50;12.30;86.80
35700;DHT22;21818;51.078;12.108;2023-02-28T03:45:30;12.30;86.90
35700;DHT22;21818;51.078;12.108;2023-02-28T03:48:13;12.30;87.00
35700;DHT22;21818;51.078;12.108;2023-02-28T03:50:44;12.30;87.00
35700;DHT22;21818;51.078;12.108;2023-02-28T03:53:16;12.30;87.10
35700;DHT22;21818;51.078;12.108;2023-02-28T03:56:06;12.30;87.10
35700;DHT22;21818;51.078;12.108;2023-02-28T03:58:38;12.30;87.20
35700;DHT22;21818;51.078;12.108;2023-02-28T04:01:18;12.30;87.20
35700;DHT22;21818;51.078;12.108;2023-02-28T04:03:45;12.30;87.20
35700;DHT22;21818;51.078;12.108;2023-02-28T04:06:18;12.30;87.20
35700;DHT22;21818;51.078;12.108;2023-02-28T04:08:45;12.30;87.30
35700;DHT22;21818;51.078;12.108;2023-02-28T04:13:42;12.30;87.50
35700;DHT22;21818;51.078;12.108;2023-02-28T04:16:08;12.30;87.50
35700;DHT22;21818;51.078;12.108;2023-02-28T04:18:40;12.30;87.60
35700;DHT22;21818;51.078;12.108;2023-02-28T04:21:06;12.20;87.60
35700;DHT22;21818;51.078;12.108;2023-02-28T04:23:32;12.30;87.60
35700;DHT22;21818;51.078;12.108;2023-02-28T04:25:58;12.20;87.60
35700;DHT22;21818;51.078;12.108;2023-02-28T04:28:24;12.30;87.70
35700;DHT22;21818;51.078;12.108;2023-02-28T04:31:02;12.20;87.70
35700;DHT22;21818;51.078;12.108;2023-02-28T04:33:28;12.20;87.80
35700;DHT22;21818;51.078;12.108;2023-02-28T04:36:07;12.20;87.80
35700;DHT22;21818;51.078;12.108;2023-02-28T04:38:36;12.20;87.80
35700;DHT22;21818;51.078;12.108;2023-02-28T04:41:02;12.20;87.80
35700;DHT22;21818;51.078;12.108;2023-02-28T04:43:28;12.20;87.80
35700;DHT22;21818;51.078;12.108;2023-02-28T04:45:55;12.20;87.80
35700;DHT22;21818;51.078;12.108;2023-02-28T04:48:25;12.20;87.90
35700;DHT22;21818;51.078;12.108;2023-02-28T04:50:52;12.20;88.00
35700;DHT22;21818;51.078;12.108;2023-02-28T04:53:18;12.20;88.00
35700;DHT22;21818;51.078;12.108;2023-02-28T04:55:44;12.20;88.10
35700;DHT22;21818;51.078;12.108;2023-02-28T04:58:10;12.20;88.10
35700;DHT22;21818;51.078;12.108;2023-02-28T05:00:36;12.20;88.10
35700;DHT22;21818;51.078;12.108;2023-02-28T05:03:01;12.20;88.10
35700;DHT22;21818;51.078;12.108;2023-02-28T05:05:27;12.20;88.20
35700;DHT22;21818;51.078;12.108;2023-02-28T05:07:52;12.20;88.20
35700;DHT22;21818;51.078;12.108;2023-02-28T05:10:19;12.20;88.30
35700;DHT22;21818;51.078;12.108;2023-02-28T05:12:44;12.10;88.30
35700;DHT22;21818;51.078;12.108;2023-02-28T05:15:14;12.20;88.40
35700;DHT22;21818;51.078;12.108;2023-02-28T05:17:39;12.20;88.50
35700;DHT22;21818;51.078;12.108;2023-02-28T05:20:06;12.20;88.40
35700;DHT22;21818;51.078;12.108;2023-02-28T05:22:32;12.20;88.50
35700;DHT22;21818;51.078;12.108;2023-02-28T05:24:58;12.10;88.50
35700;DHT22;21818;51.078;12.108;2023-02-28T05:27:23;12.10;88.50
35700;DHT22;21818;51.078;12.108;2023-02-28T05:29:49;12.10;88.60
35700;DHT22;21818;51.078;12.108;2023-02-28T05:32:14;12.10;88.60
35700;DHT22;21818;51.078;12.108;2023-02-28T05:34:41;12.10;88.70
35700;DHT22;21818;51.078;12.108;2023-02-28T05:37:11;12.10;88.70
35700;DHT22;21818;51.078;12.108;2023-02-28T05:39:37;12.10;88.70
35700;DHT22;21818;51.078;12.108;2023-02-28T05:42:03;12.10;88.70
35700;DHT22;21818;51.078;12.108;2023-02-28T05:44:28;12.10;88.80
35700;DHT22;21818;51.078;12.108;2023-02-28T05:46:54;12.20;88.80
35700;DHT22;21818;51.078;12.108;2023-02-28T05:49:20;12.10;88.80
35700;DHT22;21818;51.078;12.108;2023-02-28T05:51:45;12.20;88.90
35700;DHT22;21818;51.078;12.108;2023-02-28T05:54:11;12.20;88.90
35700;DHT22;21818;51.078;12.108;2023-02-28T05:56:36;12.10;88.90
35700;DHT22;21818;51.078;12.108;2023-02-28T05:59:05;12.10;88.90
35700;DHT22;21818;51.078;12.108;2023-02-28T06:01:32;12.10;88.90
35700;DHT22;21818;51.078;12.108;2023-02-28T06:04:00;12.20;89.20
35700;DHT22;21818;51.078;12.108;2023-02-28T06:06:26;12.10;87.10
35700;DHT22;21818;51.078;12.108;2023-02-28T06:08:51;10.60;85.20
35700;DHT22;21818;51.078;12.108;2023-02-28T06:11:17;10.20;87.30
35700;DHT22;21818;51.078;12.108;2023-02-28T06:13:45;10.10;87.20
35700;DHT22;21818;51.078;12.108;2023-02-28T06:16:11;9.80;87.00
35700;DHT22;21818;51.078;12.108;2023-02-28T06:18:36;9.70;87.00
35700;DHT22;21818;51.078;12.108;2023-02-28T06:21:02;8.20;80.30
35700;DHT22;21818;51.078;12.108;2023-02-28T06:23:28;6.60;81.00
35700;DHT22;21818;51.078;12.108;2023-02-28T06:25:53;5.50;81.70
35700;DHT22;21818;51.078;12.108;2023-02-28T06:28:22;4.90;82.20
35700;DHT22;21818;51.078;12.108;2023-02-28T06:30:48;4.50;86.50
35700;DHT22;21818;51.078;12.108;2023-02-28T06:33:13;5.70;90.20
35700;DHT22;21818;51.078;12.108;2023-02-28T06:35:39;7.10;88.20
35700;DHT22;21818;51.078;12.108;2023-02-28T06:38:05;8.30;85.80
35700;DHT22;21818;51.078;12.108;2023-02-28T06:40:30;9.10;84.00
35700;DHT22;21818;51.078;12.108;2023-02-28T06:42:59;9.60;82.90
35700;DHT22;21818;51.078;12.108;2023-02-28T06:45:24;10.00;82.10
35700;DHT22;21818;51.078;12.108;2023-02-28T06:47:51;10.30;81.60
35700;DHT22;21818;51.078;12.108;2023-02-28T06:50:17;10.60;81.30
35700;DHT22;21818;51.078;12.108;2023-02-28T06:52:44;10.90;81.10
35700;DHT22;21818;51.078;12.108;2023-02-28T06:55:10;11.00;80.80
35700;DHT22;21818;51.078;12.108;2023-02-28T06:57:36;11.20;80.70
35700;DHT22;21818;51.078;12.108;2023-02-28T07:00:05;11.30;80.70
35700;DHT22;21818;51.078;12.108;2023-02-28T07:02:33;11.40;80.60
35700;DHT22;21818;51.078;12.108;2023-02-28T07:04:58;11.50;80.70
35700;DHT22;21818;51.078;12.108;2023-02-28T07:07:24;11.50;80.70
35700;DHT22;21818;51.078;12.108;2023-02-28T07:09:49;11.50;80.70
35700;DHT22;21818;51.078;12.108;2023-02-28T07:12:15;11.60;80.80
35700;DHT22;21818;51.078;12.108;2023-02-28T07:14:41;11.60;80.90
35700;DHT22;21818;51.078;12.108;2023-02-28T07:17:07;11.60;80.90
35700;DHT22;21818;51.078;12.108;2023-02-28T07:19:33;11.60;80.90
35700;DHT22;21818;51.078;12.108;2023-02-28T07:21:59;11.70;81.00
35700;DHT22;21818;51.078;12.108;2023-02-28T07:24:25;11.70;81.00
35700;DHT22;21818;51.078;12.108;2023-02-28T07:26:53;11.70;81.00
35700;DHT22;21818;51.078;12.108;2023-02-28T07:29:19;11.70;81.00
35700;DHT22;21818;51.078;12.108;2023-02-28T07:31:44;11.80;81.10
35700;DHT22;21818;51.078;12.108;2023-02-28T07:34:12;11.80;81.10
35700;DHT22;21818;51.078;12.108;2023-02-28T07:36:37;11.80;81.10
35700;DHT22;21818;51.078;12.108;2023-02-28T07:39:03;11.80;81.10
35700;DHT22;21818;51.078;12.108;2023-02-28T07:41:30;11.80;81.10
35700;DHT22;21818;51.078;12.108;2023-02-28T07:43:58;11.80;81.10
35700;DHT22;21818;51.078;12.108;2023-02-28T07:46:25;11.80;81.10
35700;DHT22;21818;51.078;12.108;2023-02-28T07:48:51;11.80;81.20
35700;DHT22;21818;51.078;12.108;2023-02-28T07:51:18;11.90;81.20
35700;DHT22;21818;51.078;12.108;2023-02-28T07:53:44;11.90;81.20
35700;DHT22;21818;51.078;12.108;2023-02-28T07:56:09;11.90;81.20
35700;DHT22;21818;51.078;12.108;2023-02-28T07:58:36;11.90;81.20
35700;DHT22;21818;51.078;12.108;2023-02-28T08:01:10;11.90;81.20
35700;DHT22;21818;51.078;12.108;2023-02-28T08:03:36;11.90;81.20
35700;DHT22;21818;51.078;12.108;2023-02-28T08:06:03;11.90;81.20
35700;DHT22;21818;51.078;12.108;2023-02-28T08:08:29;12.00;81.20
35700;DHT22;21818;51.078;12.108;2023-02-28T08:11:01;12.00;81.30
35700;DHT22;21818;51.078;12.108;2023-02-28T08:13:28;12.00;81.20
35700;DHT22;21818;51.078;12.108;2023-02-28T08:15:55;12.00;81.20
35700;DHT22;21818;51.078;12.108;2023-02-28T08:18:21;11.90;81.20
35700;DHT22;21818;51.078;12.108;2023-02-28T08:20:47;11.90;81.30
35700;DHT22;21818;51.078;12.108;2023-02-28T08:23:13;11.90;81.30
35700;DHT22;21818;51.078;12.108;2023-02-28T08:25:38;12.00;81.30
35700;DHT22;21818;51.078;12.108;2023-02-28T08:28:04;12.00;81.30
35700;DHT22;21818;51.078;12.108;2023-02-28T08:30:29;12.00;81.30
35700;DHT22;21818;51.078;12.108;2023-02-28T08:32:55;12.00;81.30
35700;DHT22;21818;51.078;12.108;2023-02-28T08:35:21;12.00;81.20
35700;DHT22;21818;51.078;12.108;2023-02-28T08:37:48;12.00;81.20
35700;DHT22;21818;51.078;12.108;2023-02-28T08:40:14;12.00;81.20
35700;DHT22;21818;51.078;12.108;2023-02-28T08:42:44;12.00;81.20
35700;DHT22;21818;51.078;12.108;2023-02-28T08:45:10;12.00;81.30
35700;DHT22;21818;51.078;12.108;2023-02-28T08:47:36;12.00;81.30
35700;DHT22;21818;51.078;12.108;2023-02-28T08:50:02;12.00;81.30
35700;DHT22;21818;51.078;12.108;2023-02-28T08:52:28;12.10;81.20
35700;DHT22;21818;51.078;12.108;2023-02-28T08:54:54;12.10;81.60
35700;DHT22;21818;51.078;12.108;2023-02-28T08:57:19;12.10;81.00
35700;DHT22;21818;51.078;12.108;2023-02-28T08:59:45;12.20;80.90
35700;DHT22;21818;51.078;12.108;2023-02-28T09:02:13;12.10;80.80
35700;DHT22;21818;51.078;12.108;2023-02-28T09:04:39;12.20;80.90
35700;DHT22;21818;51.078;12.108;2023-02-28T09:07:05;12.10;80.90
35700;DHT22;21818;51.078;12.108;2023-02-28T09:09:30;12.10;80.80
35700;DHT22;21818;51.078;12.108;2023-02-28T09:11:56;12.10;80.90
35700;DHT22;21818;51.078;12.108;2023-02-28T09:14:22;12.10;80.90
35700;DHT22;21818;51.078;12.108;2023-02-28T09:16:47;12.10;80.80
35700;DHT22;21818;51.078;12.108;2023-02-28T09:19:13;12.20;80.80
35700;DHT22;21818;51.078;12.108;2023-02-28T09:21:39;12.20;80.90
35700;DHT22;21818;51.078;12.108;2023-02-28T09:24:05;12.10;80.80
35700;DHT22;21818;51.078;12.108;2023-02-28T09:26:31;12.10;80.70
35700;DHT22;21818;51.078;12.108;2023-02-28T09:28:56;12.20;80.80
35700;DHT22;21818;51.078;12.108;2023-02-28T09:31:26;12.20;80.80
35700;DHT22;21818;51.078;12.108;2023-02-28T09:33:55;12.20;80.80
35700;DHT22;21818;51.078;12.108;2023-02-28T09:36:22;12.20;80.80
35700;DHT22;21818;51.078;12.108;2023-02-28T09:38:48;12.20;80.70
35700;DHT22;21818;51.078;12.108;2023-02-28T09:41:24;12.20;80.70
35700;DHT22;21818;51.078;12.108;2023-02-28T09:43:57;12.20;80.70
35700;DHT22;21818;51.078;12.108;2023-02-28T09:46:43;12.20;80.60
35700;DHT22;21818;51.078;12.108;2023-02-28T09:49:22;12.20;80.40
35700;DHT22;21818;51.078;12.108;2023-02-28T09:52:10;12.30;80.20
35700;DHT22;21818;51.078;12.108;2023-02-28T09:54:36;12.30;80.20
35700;DHT22;21818;51.078;12.108;2023-02-28T10:00:07;12.40;80.20
35700;DHT22;21818;51.078;12.108;2023-02-28T10:02:43;12.40;80.10
35700;DHT22;21818;51.078;12.108;2023-02-28T10:05:14;12.30;80.10
35700;DHT22;21818;51.078;12.108;2023-02-28T10:12:54;12.30;80.20
35700;DHT22;21818;51.078;12.108;2023-02-28T10:15:23;12.30;80.20
35700;DHT22;21818;51.078;12.108;2023-02-28T10:17:54;12.30;80.20
35700;DHT22;21818;51.078;12.108;2023-02-28T10:20:21;12.30;80.20
35700;DHT22;21818;51.078;12.108;2023-02-28T10:22:58;12.40;80.20
35700;DHT22;21818;51.078;12.108;2023-02-28T10:25:27;12.40;80.20
35700;DHT22;21818;51.078;12.108;2023-02-28T10:28:12;12.40;80.10
35700;DHT22;21818;51.078;12.108;2023-02-28T10:30:43;12.40;80.00
35700;DHT22;21818;51.078;12.108;2023-02-28T10:35:47;12.40;79.90
35700;DHT22;21818;51.078;12.108;2023-02-28T10:38:31;12.50;80.00
35700;DHT22;21818;51.078;12.108;2023-02-28T10:41:09;12.50;79.80
35700;DHT22;21818;51.078;12.108;2023-02-28T10:43:36;12.50;79.80
35700;DHT22;21818;51.078;12.108;2023-02-28T10:48:40;12.60;79.70
35700;DHT22;21818;51.078;12.108;2023-02-28T10:51:10;12.60;79.60
35700;DHT22;21818;51.078;12.108;2023-02-28T11:01:42;12.50;79.60
35700;DHT22;21818;51.078;12.108;2023-02-28T11:04:23;12.50;79.60
35700;DHT22;21818;51.078;12.108;2023-02-28T11:07:06;12.50;79.70
35700;DHT22;21818;51.078;12.108;2023-02-28T11:09:38;12.50;79.70
35700;DHT22;21818;51.078;12.108;2023-02-28T11:12:28;12.50;79.70
35700;DHT22;21818;51.078;12.108;2023-02-28T11:14:57;12.50;79.60
35700;DHT22;21818;51.078;12.108;2023-02-28T11:17:26;12.50;79.60
35700;DHT22;21818;51.078;12.108;2023-02-28T11:19:55;12.50;79.60
35700;DHT22;21818;51.078;12.108;2023-02-28T11:22:32;12.50;79.50
35700;DHT22;21818;51.078;12.108;2023-02-28T11:25:06;12.50;79.50
35700;DHT22;21818;51.078;12.108;2023-02-28T11:30:00;12.60;79.50
35700;DHT22;21818;51.078;12.108;2023-02-28T11:32:28;12.60;79.40
35700;DHT22;21818;51.078;12.108;2023-02-28T11:35:12;12.60;79.30
35700;DHT22;21818;51.078;12.108;2023-02-28T11:37:39;12.60;79.30
35700;DHT22;21818;51.078;12.108;2023-02-28T11:40:17;12.70;79.30
35700;DHT22;21818;51.078;12.108;2023-02-28T11:48:01;12.70;79.10
35700;DHT22;21818;51.078;12.108;2023-02-28T11:50:53;12.80;79.00
35700;DHT22;21818;51.078;12.108;2023-02-28T11:53:44;12.80;79.00
35700;DHT22;21818;51.078;12.108;2023-02-28T12:04:21;12.90;78.80
35700;DHT22;21818;51.078;12.108;2023-02-28T12:09:50;12.90;78.60
35700;DHT22;21818;51.078;12.108;2023-02-28T12:17:56;13.10;78.20
35700;DHT22;21818;51.078;12.108;2023-02-28T12:28:15;13.50;77.60
35700;DHT22;21818;51.078;12.108;2023-02-28T12:30:58;13.60;77.40
35700;DHT22;21818;51.078;12.108;2023-02-28T12:33:28;13.70;77.20
35700;DHT22;21818;51.078;12.108;2023-02-28T12:35:59;13.80;77.10
35700;DHT22;21818;51.078;12.108;2023-02-28T12:38:29;13.90;76.90
35700;DHT22;21818;51.078;12.108;2023-02-28T12:41:04;14.00;76.70
35700;DHT22;21818;51.078;12.108;2023-02-28T12:43:36;14.20;76.60
35700;DHT22;21818;51.078;12.108;2023-02-28T12:46:27;14.30;76.40
35700;DHT22;21818;51.078;12.108;2023-02-28T12:49:00;14.40;76.10
35700;DHT22;21818;51.078;12.108;2023-02-28T12:51:28;14.60;76.00
35700;DHT22;21818;51.078;12.108;2023-02-28T12:54:23;14.70;75.60
35700;DHT22;21818;51.078;12.108;2023-02-28T13:00:18;14.90;74.80
35700;DHT22;21818;51.078;12.108;2023-02-28T13:03:09;15.00;75.00
35700;DHT22;21818;51.078;12.108;2023-02-28T13:08:59;15.30;74.10
35700;DHT22;21818;51.078;12.108;2023-02-28T13:11:32;15.30;73.80
35700;DHT22;21818;51.078;12.108;2023-02-28T13:14:03;15.20;74.10
35700;DHT22;21818;51.078;12.108;2023-02-28T13:19:17;15.00;73.80
35700;DHT22;21818;51.078;12.108;2023-02-28T13:21:44;14.90;74.30
35700;DHT22;21818;51.078;12.108;2023-02-28T13:24:10;14.90;74.20
35700;DHT22;21818;51.078;12.108;2023-02-28T13:34:40;15.50;72.40
35700;DHT22;21818;51.078;12.108;2023-02-28T13:50:29;15.70;71.80
35700;DHT22;21818;51.078;12.108;2023-02-28T13:56:07;15.50;71.60
35700;DHT22;21818;51.078;12.108;2023-02-28T14:01:48;15.70;71.60
35700;DHT22;21818;51.078;12.108;2023-02-28T14:07:05;16.10;70.60
35700;DHT22;21818;51.078;12.108;2023-02-28T14:09:37;15.80;70.80
35700;DHT22;21818;51.078;12.108;2023-02-28T14:17:57;16.10;69.90
35700;DHT22;21818;51.078;12.108;2023-02-28T14:20:26;16.20;70.10
35700;DHT22;21818;51.078;12.108;2023-02-28T14:23:26;16.30;69.90
35700;DHT22;21818;51.078;12.108;2023-02-28T14:26:02;16.40;69.60
35700;DHT22;21818;51.078;12.108;2023-02-28T14:28:50;16.40;69.40
35700;DHT22;21818;51.078;12.108;2023-02-28T14:31:34;16.50;69.20
35700;DHT22;21818;51.078;12.108;2023-02-28T14:36:53;16.60;68.60
35700;DHT22;21818;51.078;12.108;2023-02-28T14:39:25;16.60;69.00
35700;DHT22;21818;51.078;12.108;2023-02-28T14:41:51;16.70;68.90
35700;DHT22;21818;51.078;12.108;2023-02-28T14:44:22;16.60;68.80
35700;DHT22;21818;51.078;12.108;2023-02-28T14:47:00;16.40;69.00
35700;DHT22;21818;51.078;12.108;2023-02-28T14:49:35;16.20;69.30
35700;DHT22;21818;51.078;12.108;2023-02-28T14:52:06;16.00;69.70
35700;DHT22;21818;51.078;12.108;2023-02-28T14:54:38;15.90;70.00
35700;DHT22;21818;51.078;12.108;2023-02-28T14:57:05;15.80;70.10
35700;DHT22;21818;51.078;12.108;2023-02-28T14:59:34;16.00;69.80
35700;DHT22;21818;51.078;12.108;2023-02-28T15:02:20;16.00;69.60
35700;DHT22;21818;51.078;12.108;2023-02-28T15:04:58;16.20;69.20
35700;DHT22;21818;51.078;12.108;2023-02-28T15:07:25;16.30;69.00
35700;DHT22;21818;51.078;12.108;2023-02-28T15:10:23;16.40;68.90
35700;DHT22;21818;51.078;12.108;2023-02-28T15:13:00;16.40;68.40
35700;DHT22;21818;51.078;12.108;2023-02-28T15:18:04;16.50;68.50
35700;DHT22;21818;51.078;12.108;2023-02-28T15:20:32;16.60;68.50
35700;DHT22;21818;51.078;12.108;2023-02-28T15:22:58;16.60;68.30
35700;DHT22;21818;51.078;12.108;2023-02-28T15:25:25;16.60;68.30
35700;DHT22;21818;51.078;12.108;2023-02-28T15:27:53;16.60;68.30
35700;DHT22;21818;51.078;12.108;2023-02-28T15:30:27;16.60;68.20
35700;DHT22;21818;51.078;12.108;2023-02-28T15:35:37;16.50;68.20
35700;DHT22;21818;51.078;12.108;2023-02-28T15:38:22;16.50;68.30
35700;DHT22;21818;51.078;12.108;2023-02-28T15:40:53;16.50;68.20
35700;DHT22;21818;51.078;12.108;2023-02-28T15:43:23;16.50;68.30
35700;DHT22;21818;51.078;12.108;2023-02-28T15:48:33;16.40;68.40
35700;DHT22;21818;51.078;12.108;2023-02-28T15:53:36;16.40;68.50
35700;DHT22;21818;51.078;12.108;2023-02-28T15:56:05;16.30;68.60
35700;DHT22;21818;51.078;12.108;2023-02-28T15:58:33;16.20;68.70
35700;DHT22;21818;51.078;12.108;2023-02-28T16:01:04;16.10;68.80
35700;DHT22;21818;51.078;12.108;2023-02-28T16:03:46;16.00;69.00
35700;DHT22;21818;51.078;12.108;2023-02-28T16:06:37;15.90;69.00
35700;DHT22;21818;51.078;12.108;2023-02-28T16:09:04;15.80;69.30
35700;DHT22;21818;51.078;12.108;2023-02-28T16:11:32;15.70;69.60
35700;DHT22;21818;51.078;12.108;2023-02-28T16:13:58;15.60;69.70
35700;DHT22;21818;51.078;12.108;2023-02-28T16:16:24;15.50;69.80
35700;DHT22;21818;51.078;12.108;2023-02-28T16:18:51;15.50;69.90
35700;DHT22;21818;51.078;12.108;2023-02-28T16:21:17;15.40;70.00
35700;DHT22;21818;51.078;12.108;2023-02-28T16:23:43;15.40;70.20
35700;DHT22;21818;51.078;12.108;2023-02-28T16:26:18;15.30;70.20
35700;DHT22;21818;51.078;12.108;2023-02-28T16:28:44;15.20;70.30
35700;DHT22;21818;51.078;12.108;2023-02-28T16:31:12;15.20;70.40
35700;DHT22;21818;51.078;12.108;2023-02-28T16:33:41;15.10;70.50
35700;DHT22;21818;51.078;12.108;2023-02-28T16:36:13;15.10;70.30
35700;DHT22;21818;51.078;12.108;2023-02-28T16:38:39;15.10;70.70
35700;DHT22;21818;51.078;12.108;2023-02-28T16:41:05;15.00;70.80
35700;DHT22;21818;51.078;12.108;2023-02-28T16:43:31;15.00;71.20
35700;DHT22;21818;51.078;12.108;2023-02-28T16:45:57;15.00;71.40
35700;DHT22;21818;51.078;12.108;2023-02-28T16:48:26;14.90;71.50
35700;DHT22;21818;51.078;12.108;2023-02-28T16:50:52;14.90;71.60
35700;DHT22;21818;51.078;12.108;2023-02-28T16:53:17;14.80;71.70
35700;DHT22;21818;51.078;12.108;2023-02-28T16:55:43;14.80;71.80
35700;DHT22;21818;51.078;12.108;2023-02-28T16:58:14;14.70;71.90
35700;DHT22;21818;51.078;12.108;2023-02-28T17:00:40;14.70;72.10
35700;DHT22;21818;51.078;12.108;2023-02-28T17:03:07;14.60;72.20
35700;DHT22;21818;51.078;12.108;2023-02-28T17:05:37;14.50;72.30
35700;DHT22;21818;51.078;12.108;2023-02-28T17:08:03;14.40;72.40
35700;DHT22;21818;51.078;12.108;2023-02-28T17:10:29;14.40;72.50
35700;DHT22;21818;51.078;12.108;2023-02-28T17:12:55;14.30;72.60
35700;DHT22;21818;51.078;12.108;2023-02-28T17:15:20;14.30;72.80
35700;DHT22;21818;51.078;12.108;2023-02-28T17:17:47;14.20;72.80
35700;DHT22;21818;51.078;12.108;2023-02-28T17:20:19;14.20;73.00
35700;DHT22;21818;51.078;12.108;2023-02-28T17:22:48;14.10;73.10
35700;DHT22;21818;51.078;12.108;2023-02-28T17:25:14;14.10;73.20
35700;DHT22;21818;51.078;12.108;2023-02-28T17:27:39;14.00;73.20
35700;DHT22;21818;51.078;12.108;2023-02-28T17:30:26;14.00;73.30
35700;DHT22;21818;51.078;12.108;2023-02-28T17:32:56;13.90;73.40
35700;DHT22;21818;51.078;12.108;2023-02-28T17:35:22;13.90;73.50
35700;DHT22;21818;51.078;12.108;2023-02-28T17:37:48;13.90;73.60
35700;DHT22;21818;51.078;12.108;2023-02-28T17:40:16;13.80;73.70
35700;DHT22;21818;51.078;12.108;2023-02-28T17:42:43;13.80;73.80
35700;DHT22;21818;51.078;12.108;2023-02-28T17:45:08;13.70;73.80
35700;DHT22;21818;51.078;12.108;2023-02-28T17:47:34;13.70;73.90
35700;DHT22;21818;51.078;12.108;2023-02-28T17:49:59;13.60;74.00
35700;DHT22;21818;51.078;12.108;2023-02-28T17:52:25;13.60;74.10
35700;DHT22;21818;51.078;12.108;2023-02-28T17:54:50;13.60;74.20
35700;DHT22;21818;51.078;12.108;2023-02-28T17:57:16;13.50;74.20
35700;DHT22;21818;51.078;12.108;2023-02-28T17:59:42;13.50;74.40
35700;DHT22;21818;51.078;12.108;2023-02-28T18:02:11;13.50;74.40